Time;durP1;ratioP1;P1;durP2;ratioP2;P2;SDS_P1;SDS_P2;PMS_P1;PMS_P2;Temp;Humidity;BMP_temperature;BMP_pressure;BME280_temperature;BME280_humidity;BME280_pressure;Samples;Min_cycle;Max_cycle;Signal;HPM_P1;HPM_P2
2021/05/04 00:01:17;;;;;;;9.27;5.50;;;12.50;95.10;;;;;;5059190;28;20068;-79
2021/05/04 00:03:43;;;;;;;7.90;5.50;;;12.60;95.30;;;;;;5059049;28;20119;-79
2021/05/04 00:06:10;;;;;;;10.32;5.43;;;12.60;95.10;;;;;;5060775;28;20134;-79
2021/05/04 00:08:37;;;;;;;8.00;5.20;;;12.60;95.00;;;;;;5057699;28;20509;-80
2021/05/04 00:11:03;;;;;;;10.68;5.47;;;12.60;95.10;;;;;;5058164;28;20133;-78
2021/05/04 00:13:30;;;;;;;8.18;5.00;;;12.70;95.00;;;;;;5060384;28;20081;-78
2021/05/04 00:15:56;;;;;;;6.43;4.70;;;12.70;94.90;;;;;;5063027;28;20128;-81
2021/05/04 00:18:23;;;;;;;7.10;5.00;;;12.70;94.80;;;;;;5062918;28;20109;-81
2021/05/04 00:20:49;;;;;;;7.32;5.03;;;12.70;95.00;;;;;;5065470;28;20082;-80
2021/05/04 00:23:16;;;;;;;6.97;4.70;;;12.70;95.00;;;;;;5066877;28;20065;-80
2021/05/04 00:25:42;;;;;;;7.05;5.05;;;12.70;95.20;;;;;;5065005;28;20076;-80
2021/05/04 00:28:09;;;;;;;7.63;5.10;;;12.70;95.20;;;;;;5065845;28;20088;-80
2021/05/04 00:30:35;;;;;;;6.93;4.82;;;12.70;95.50;;;;;;5067711;28;20084;-79
2021/05/04 00:33:02;;;;;;;12.52;5.47;;;12.70;95.00;;;;;;5067595;28;20088;-79
2021/05/04 00:35:28;;;;;;;6.78;4.80;;;12.70;95.10;;;;;;5066881;28;20084;-79
2021/05/04 00:37:54;;;;;;;6.80;4.60;;;12.70;95.70;;;;;;5067302;28;20085;-79
2021/05/04 00:40:22;;;;;;;5.78;4.15;;;12.70;95.10;;;;;;5068966;28;20063;-79
2021/05/04 00:42:48;;;;;;;7.78;5.13;;;12.70;95.60;;;;;;5068237;28;20053;-79
2021/05/04 00:45:15;;;;;;;9.10;4.78;;;12.70;95.20;;;;;;5105202;22;20071;-81
2021/05/04 00:47:42;;;;;;;5.95;4.35;;;12.70;95.10;;;;;;5050782;28;20088;-78
2021/05/04 00:50:09;;;;;;;6.95;4.40;;;12.80;95.20;;;;;;5055052;28;20496;-77
2021/05/04 00:52:36;;;;;;;9.07;5.03;;;12.80;95.20;;;;;;5056673;28;20179;-78
2021/05/04 00:55:04;;;;;;;9.02;4.82;;;12.80;95.30;;;;;;5056666;28;20087;-80
2021/05/04 00:57:32;;;;;;;8.23;4.90;;;12.80;95.40;;;;;;5057633;28;20052;-79
2021/05/04 00:59:59;;;;;;;9.57;4.90;;;12.80;95.40;;;;;;5057625;28;20033;-78
2021/05/04 01:02:26;;;;;;;8.07;4.90;;;12.80;95.60;;;;;;5056967;28;20505;-77
2021/05/04 01:04:53;;;;;;;9.23;4.68;;;12.80;95.60;;;;;;5056651;28;20108;-79
2021/05/04 01:07:19;;;;;;;7.05;4.30;;;12.80;95.30;;;;;;5056179;28;20049;-79
2021/05/04 01:09:46;;;;;;;6.80;4.72;;;12.80;95.00;;;;;;5057210;28;20136;-80
2021/05/04 01:12:13;;;;;;;7.95;4.75;;;12.80;95.30;;;;;;5057228;28;20049;-80
2021/05/04 01:14:40;;;;;;;6.93;4.30;;;12.80;95.20;;;;;;5057526;28;20080;-78
2021/05/04 01:17:07;;;;;;;8.60;4.30;;;12.80;95.10;;;;;;5057338;28;20053;-78
2021/05/04 01:19:33;;;;;;;8.50;4.38;;;12.90;95.10;;;;;;5059377;28;20072;-79
2021/05/04 01:22:01;;;;;;;10.38;4.38;;;12.90;94.60;;;;;;5058314;28;20088;-79
2021/05/04 01:24:27;;;;;;;7.05;3.92;;;12.90;94.40;;;;;;5057745;28;20052;-80
2021/05/04 01:26:53;;;;;;;11.60;4.55;;;13.00;94.60;;;;;;5057954;28;20053;-80
2021/05/04 01:29:20;;;;;;;7.85;4.13;;;13.00;94.70;;;;;;5058526;28;20554;-79
2021/05/04 01:31:46;;;;;;;8.10;4.18;;;13.00;94.30;;;;;;5056191;28;20409;-78
2021/05/04 01:34:13;;;;;;;5.63;4.00;;;13.00;94.50;;;;;;5056232;28;20152;-78
2021/05/04 01:36:39;;;;;;;6.20;3.83;;;13.00;94.60;;;;;;5055628;28;20140;-78
2021/05/04 01:39:07;;;;;;;7.55;3.90;;;13.10;94.20;;;;;;5055455;28;20121;-79
2021/05/04 01:41:34;;;;;;;4.32;3.63;;;13.10;94.00;;;;;;5057616;28;20144;-79
2021/05/04 01:44:01;;;;;;;4.40;3.80;;;13.10;94.10;;;;;;5058002;28;20184;-80
2021/05/04 01:46:31;;;;;;;10.68;4.10;;;13.10;93.90;;;;;;5057014;28;20084;-78
2021/05/04 01:48:58;;;;;;;7.45;3.65;;;13.20;93.60;;;;;;5057387;28;20139;-79
2021/05/04 01:51:26;;;;;;;8.27;3.90;;;13.20;93.50;;;;;;5057082;28;20140;-78
2021/05/04 01:53:53;;;;;;;8.77;3.65;;;13.20;93.30;;;;;;5057869;28;20045;-79
2021/05/04 01:56:20;;;;;;;6.55;3.30;;;13.30;92.90;;;;;;5056477;28;20136;-78
2021/05/04 01:58:46;;;;;;;8.40;4.03;;;13.30;92.60;;;;;;5055587;28;20049;-79
2021/05/04 02:01:13;;;;;;;5.57;3.60;;;13.40;92.70;;;;;;5055642;28;20052;-78
2021/05/04 02:03:39;;;;;;;6.50;3.65;;;13.40;92.30;;;;;;5056441;28;20086;-78
2021/05/04 02:06:05;;;;;;;6.38;3.90;;;13.40;91.80;;;;;;5056890;28;20132;-79
2021/05/04 02:08:33;;;;;;;7.20;3.35;;;13.40;91.50;;;;;;5055761;28;20273;-79
2021/05/04 02:10:59;;;;;;;16.13;3.55;;;13.40;91.00;;;;;;5055121;28;20044;-78
2021/05/04 02:13:26;;;;;;;9.18;3.08;;;13.50;90.70;;;;;;5055504;28;20044;-78
2021/05/04 02:15:53;;;;;;;30.15;4.38;;;13.50;91.60;;;;;;5055188;28;20061;-80
2021/05/04 02:18:19;;;;;;;8.82;3.28;;;13.40;90.30;;;;;;5058351;28;20138;-80
2021/05/04 02:20:46;;;;;;;6.30;3.25;;;13.40;92.40;;;;;;5058802;28;20235;-79
2021/05/04 02:23:12;;;;;;;7.13;2.83;;;13.30;92.70;;;;;;5057823;28;20571;-80
2021/05/04 02:25:38;;;;;;;8.80;3.20;;;13.10;95.80;;;;;;5057978;28;20055;-79
2021/05/04 02:28:05;;;;;;;9.27;3.53;;;12.90;98.20;;;;;;5059492;28;20107;-80
2021/05/04 02:30:33;;;;;;;6.93;2.80;;;12.50;99.90;;;;;;5060227;28;20109;-80
2021/05/04 02:32:59;;;;;;;11.70;2.83;;;12.30;99.90;;;;;;5060606;28;20101;-82
2021/05/04 02:35:26;;;;;;;4.15;3.00;;;12.00;99.90;;;;;;5060451;28;20056;-81
2021/05/04 02:37:52;;;;;;;8.68;3.13;;;11.80;99.90;;;;;;5059241;28;20151;-81
2021/05/04 02:40:19;;;;;;;6.90;3.08;;;11.70;99.90;;;;;;5059415;28;20147;-79
2021/05/04 02:42:45;;;;;;;4.78;3.10;;;11.70;99.90;;;;;;5056758;28;20127;-78
2021/05/04 02:45:13;;;;;;;7.05;3.13;;;11.70;99.90;;;;;;5055663;28;20463;-82
2021/05/04 02:47:40;;;;;;;5.28;3.22;;;11.60;99.90;;;;;;5055728;28;20052;-78
2021/05/04 02:50:08;;;;;;;4.47;3.33;;;11.50;99.90;;;;;;5059840;28;20136;-81
2021/05/04 02:52:34;;;;;;;3.42;2.80;;;11.50;99.90;;;;;;5063668;28;20084;-79
2021/05/04 02:55:00;;;;;;;5.60;3.10;;;11.30;99.90;;;;;;5062981;28;20073;-80
2021/05/04 02:57:27;;;;;;;6.65;3.42;;;11.30;99.90;;;;;;5070276;28;20053;-80
2021/05/04 02:59:53;;;;;;;6.15;3.15;;;11.10;99.90;;;;;;5071099;28;20076;-81
2021/05/04 03:02:20;;;;;;;7.63;3.15;;;11.10;99.90;;;;;;5070257;28;20143;-81
2021/05/04 03:04:47;;;;;;;7.50;3.45;;;11.00;99.90;;;;;;5072699;28;20057;-81
2021/05/04 03:07:13;;;;;;;6.43;3.42;;;10.90;99.90;;;;;;5072873;28;20080;-83
2021/05/04 03:09:40;;;;;;;7.22;3.28;;;10.80;99.90;;;;;;5072633;28;20091;-80
2021/05/04 03:12:07;;;;;;;6.95;3.80;;;10.70;99.90;;;;;;5070204;28;20072;-82
2021/05/04 03:14:33;;;;;;;5.22;3.47;;;10.60;99.90;;;;;;5065864;28;20193;-82
2021/05/04 03:17:00;;;;;;;5.97;3.63;;;10.50;99.90;;;;;;5058186;28;20061;-82
2021/05/04 03:19:26;;;;;;;5.72;3.53;;;10.40;99.90;;;;;;5056916;28;20071;-81
2021/05/04 03:21:53;;;;;;;8.38;3.40;;;10.40;99.90;;;;;;5055782;28;20071;-80
2021/05/04 03:24:20;;;;;;;6.97;3.55;;;10.40;99.90;;;;;;5059144;28;20128;-80
2021/05/04 03:26:46;;;;;;;5.22;3.30;;;10.40;99.90;;;;;;5056021;28;20103;-81
2021/05/04 03:29:12;;;;;;;9.77;4.00;;;10.30;99.90;;;;;;5058557;28;20084;-81
2021/05/04 03:31:39;;;;;;;3.90;3.42;;;10.30;99.90;;;;;;5060793;28;20095;-81
2021/05/04 03:34:05;;;;;;;5.03;3.60;;;10.30;99.90;;;;;;5059568;28;20124;-81
2021/05/04 03:36:31;;;;;;;10.75;3.42;;;10.20;99.90;;;;;;5058474;28;20060;-82
2021/05/04 03:38:59;;;;;;;5.20;3.10;;;10.20;99.90;;;;;;5058502;28;20049;-82
2021/05/04 03:41:25;;;;;;;4.40;3.33;;;10.30;99.90;;;;;;5058109;28;20056;-82
2021/05/04 03:43:52;;;;;;;4.38;3.45;;;10.20;99.90;;;;;;5057708;28;20178;-81
2021/05/04 03:46:18;;;;;;;4.15;3.40;;;10.20;99.90;;;;;;5057548;28;20072;-82
2021/05/04 03:48:44;;;;;;;4.68;3.28;;;10.10;99.90;;;;;;5058713;28;20444;-83
2021/05/04 03:51:11;;;;;;;6.90;3.90;;;10.20;99.90;;;;;;5058756;28;20073;-82
2021/05/04 03:53:38;;;;;;;4.10;3.40;;;10.20;99.90;;;;;;5061104;28;20136;-82
2021/05/04 03:56:05;;;;;;;7.10;3.63;;;10.20;99.90;;;;;;5061609;28;20049;-83
2021/05/04 03:58:32;;;;;;;6.25;3.40;;;10.20;99.90;;;;;;5061415;28;20543;-81
2021/05/04 04:00:59;;;;;;;5.43;3.53;;;10.20;99.90;;;;;;5065043;28;20108;-80
2021/05/04 04:03:25;;;;;;;6.03;3.47;;;10.10;99.90;;;;;;5073190;28;20076;-79
2021/05/04 04:05:52;;;;;;;5.60;3.20;;;10.10;99.90;;;;;;5071815;28;20068;-84
2021/05/04 04:08:19;;;;;;;5.68;3.50;;;10.00;99.90;;;;;;5063102;28;20097;-80
2021/05/04 04:10:46;;;;;;;5.28;3.15;;;10.00;99.90;;;;;;5062477;28;20308;-80
2021/05/04 04:13:13;;;;;;;3.90;3.30;;;10.00;99.90;;;;;;5062552;28;20156;-81
2021/05/04 04:15:40;;;;;;;7.40;3.38;;;10.00;99.90;;;;;;5062876;28;20063;-80
2021/05/04 04:18:07;;;;;;;5.07;3.60;;;10.00;99.90;;;;;;5062455;28;20136;-80
2021/05/04 04:20:33;;;;;;;4.53;3.40;;;10.00;99.90;;;;;;5062394;28;20084;-80
2021/05/04 04:22:59;;;;;;;6.05;3.70;;;9.90;99.90;;;;;;5061399;28;20184;-79
2021/05/04 04:25:26;;;;;;;7.30;3.33;;;9.90;99.90;;;;;;5062136;28;20064;-79
2021/05/04 04:27:52;;;;;;;7.00;3.88;;;9.90;99.90;;;;;;5060734;28;20072;-80
2021/05/04 04:30:20;;;;;;;5.38;3.53;;;9.90;99.90;;;;;;5061803;28;20099;-80
2021/05/04 04:32:47;;;;;;;3.72;3.10;;;9.80;99.90;;;;;;5060385;28;20096;-80
2021/05/04 04:35:14;;;;;;;6.60;3.60;;;9.80;99.90;;;;;;5060491;28;20060;-81
2021/05/04 04:37:40;;;;;;;5.53;3.47;;;9.80;99.90;;;;;;5059682;28;20108;-79
2021/05/04 04:40:09;;;;;;;6.95;3.50;;;9.80;99.90;;;;;;5060725;28;20131;-79
2021/05/04 04:42:35;;;;;;;5.03;3.47;;;9.70;99.90;;;;;;5060516;28;20088;-81
2021/05/04 04:45:02;;;;;;;4.57;3.08;;;9.80;99.90;;;;;;5060967;28;20072;-79
2021/05/04 04:47:30;;;;;;;5.72;3.30;;;9.70;99.90;;;;;;5059220;28;20091;-79
2021/05/04 04:49:56;;;;;;;6.93;3.70;;;9.70;99.90;;;;;;5060093;28;20049;-80
2021/05/04 04:52:22;;;;;;;3.97;3.35;;;9.70;99.90;;;;;;5058053;28;20134;-80
2021/05/04 04:54:49;;;;;;;6.00;3.35;;;9.70;99.90;;;;;;5058740;28;20104;-81
2021/05/04 04:57:15;;;;;;;9.68;3.70;;;9.80;99.90;;;;;;5059352;28;20128;-80
2021/05/04 04:59:41;;;;;;;5.65;3.25;;;9.70;99.90;;;;;;5059882;28;20104;-80
2021/05/04 05:02:08;;;;;;;4.63;3.33;;;9.70;99.90;;;;;;5059825;28;20049;-80
2021/05/04 05:04:35;;;;;;;4.45;3.35;;;9.70;99.90;;;;;;5059820;28;20088;-81
2021/05/04 05:07:06;;;;;;;5.47;3.50;;;9.80;99.90;;;;;;5059950;28;20049;-81
2021/05/04 05:09:35;;;;;;;5.07;3.28;;;9.80;99.90;;;;;;5059887;28;20060;-79
2021/05/04 05:12:02;;;;;;;7.95;3.40;;;9.70;99.90;;;;;;5059760;28;20048;-80
2021/05/04 05:14:28;;;;;;;5.00;3.30;;;9.70;99.90;;;;;;5059079;28;20045;-81
2021/05/04 05:16:54;;;;;;;7.68;3.25;;;9.70;99.90;;;;;;5059281;28;20049;-82
2021/05/04 05:19:21;;;;;;;3.78;3.30;;;9.70;99.90;;;;;;5063315;28;20116;-82
2021/05/04 05:21:48;;;;;;;5.65;3.33;;;9.70;99.90;;;;;;5061321;28;20524;-83
2021/05/04 05:24:14;;;;;;;4.75;3.60;;;9.70;99.90;;;;;;5058896;28;20137;-81
2021/05/04 05:26:41;;;;;;;4.13;2.88;;;9.70;99.90;;;;;;5058808;28;20195;-81
2021/05/04 05:29:08;;;;;;;4.70;3.33;;;9.80;99.90;;;;;;5058824;28;20045;-82
2021/05/04 05:31:36;;;;;;;3.95;3.00;;;9.70;99.90;;;;;;5059581;28;20132;-82
2021/05/04 05:34:02;;;;;;;3.60;3.15;;;9.60;99.90;;;;;;5060903;28;20552;-81
2021/05/04 05:36:29;;;;;;;4.60;3.10;;;9.70;99.90;;;;;;5058226;28;20053;-80
2021/05/04 05:38:56;;;;;;;6.07;3.35;;;9.60;99.90;;;;;;5058703;28;20128;-80
2021/05/04 05:41:22;;;;;;;3.17;2.75;;;9.70;99.90;;;;;;5059366;28;20140;-80
2021/05/04 05:43:49;;;;;;;3.28;2.75;;;9.70;99.90;;;;;;5058243;28;20594;-81
2021/05/04 05:46:16;;;;;;;5.40;3.35;;;9.80;99.90;;;;;;5057450;28;20484;-79
2021/05/04 05:48:43;;;;;;;4.70;2.88;;;9.80;99.90;;;;;;5057789;28;20056;-81
2021/05/04 05:51:09;;;;;;;4.07;3.28;;;9.80;99.90;;;;;;5055836;28;20121;-78
2021/05/04 05:53:36;;;;;;;3.97;3.17;;;9.80;99.90;;;;;;5056260;28;20052;-78
2021/05/04 05:56:04;;;;;;;4.95;3.00;;;9.80;99.90;;;;;;5053349;28;20170;-76
2021/05/04 05:58:30;;;;;;;3.38;2.72;;;9.90;99.90;;;;;;5051079;28;20091;-78
2021/05/04 06:00:57;;;;;;;6.20;3.13;;;10.00;99.90;;;;;;5036699;28;20140;-78
2021/05/04 06:03:23;;;;;;;5.22;3.50;;;10.00;99.90;;;;;;5033118;28;20053;-76
2021/05/04 06:05:51;;;;;;;4.22;2.92;;;10.00;99.90;;;;;;5032699;28;20132;-78
2021/05/04 06:08:18;;;;;;;3.08;2.78;;;10.20;99.90;;;;;;5032588;28;20054;-77
2021/05/04 06:10:44;;;;;;;4.72;3.00;;;10.20;99.90;;;;;;5032647;28;20049;-77
2021/05/04 06:13:11;;;;;;;5.38;3.10;;;10.40;99.90;;;;;;5032575;28;20061;-77
2021/05/04 06:15:40;;;;;;;3.55;3.25;;;10.40;99.90;;;;;;5032841;28;20057;-79
2021/05/04 06:18:06;;;;;;;4.85;3.10;;;10.50;99.90;;;;;;5030527;28;20053;-78
2021/05/04 06:20:33;;;;;;;3.67;2.70;;;10.50;99.90;;;;;;5033978;28;20113;-78
2021/05/04 06:22:59;;;;;;;5.55;2.83;;;10.50;99.90;;;;;;5033909;28;20132;-78
2021/05/04 06:25:26;;;;;;;4.20;2.90;;;10.50;99.90;;;;;;5033816;28;20083;-79
2021/05/04 06:27:53;;;;;;;4.00;2.95;;;10.50;99.90;;;;;;5032410;28;20052;-78
2021/05/04 06:30:21;;;;;;;4.35;2.88;;;10.50;99.90;;;;;;5034547;28;20490;-80
2021/05/04 06:32:48;;;;;;;6.57;3.90;;;10.50;99.90;;;;;;5035248;28;20476;-80
2021/05/04 06:35:19;;;;;;;16.95;9.77;;;10.50;99.90;;;;;;5036315;28;20364;-81
2021/05/04 06:37:45;;;;;;;10.90;6.65;;;10.60;99.90;;;;;;5036341;28;20057;-79
2021/05/04 06:40:13;;;;;;;7.78;5.75;;;10.60;99.90;;;;;;5035603;28;20108;-80
2021/05/04 06:42:40;;;;;;;4.15;3.35;;;10.60;99.90;;;;;;5036344;28;20056;-78
2021/05/04 06:45:07;;;;;;;6.53;4.05;;;10.60;99.90;;;;;;5034428;28;20085;-79
2021/05/04 06:47:35;;;;;;;4.45;3.50;;;10.50;99.90;;;;;;5080499;23;20521;-78
2021/05/04 06:50:01;;;;;;;3.60;2.60;;;10.50;99.90;;;;;;5034417;28;20053;-80
2021/05/04 06:52:28;;;;;;;6.20;3.22;;;10.60;99.90;;;;;;5033924;28;20491;-77
2021/05/04 06:54:54;;;;;;;5.20;3.15;;;10.60;99.90;;;;;;5033315;28;20075;-81
2021/05/04 06:57:57;;;;;;;5.07;3.28;;;10.60;99.90;;;;;;5032336;28;20486;-78
2021/05/04 07:00:24;;;;;;;4.85;3.47;;;10.70;99.90;;;;;;5032779;28;20109;-79
2021/05/04 07:02:51;;;;;;;4.53;3.20;;;10.80;99.90;;;;;;5032044;28;20536;-77
2021/05/04 07:05:18;;;;;;;4.95;3.70;;;10.80;99.90;;;;;;5032965;28;20056;-78
2021/05/04 07:07:45;;;;;;;4.25;3.17;;;10.90;99.90;;;;;;5031632;28;20497;-78
2021/05/04 07:10:12;;;;;;;6.07;2.58;;;10.90;99.90;;;;;;5033175;28;20128;-79
2021/05/04 07:12:38;;;;;;;8.63;4.00;;;11.00;99.90;;;;;;5034050;28;20132;-79
2021/05/04 07:15:06;;;;;;;6.93;4.00;;;11.10;99.90;;;;;;5038234;28;20076;-80
2021/05/04 07:17:32;;;;;;;9.40;4.10;;;11.10;99.90;;;;;;5052869;28;20137;-80
2021/05/04 07:20:02;;;;;;;14.52;4.38;;;11.10;99.90;;;;;;5051951;28;20124;-78
2021/05/04 07:22:29;;;;;;;4.88;4.10;;;11.20;99.90;;;;;;5052383;28;20049;-78
2021/05/04 07:24:56;;;;;;;4.53;3.47;;;11.20;99.90;;;;;;5055817;28;20051;-79
2021/05/04 07:27:23;;;;;;;5.85;3.63;;;11.20;99.90;;;;;;5056582;28;20059;-78
2021/05/04 07:29:49;;;;;;;4.80;3.47;;;11.20;99.90;;;;;;5058932;28;20487;-78
2021/05/04 07:32:17;;;;;;;4.82;3.67;;;11.20;99.90;;;;;;5059156;28;20136;-80
2021/05/04 07:34:44;;;;;;;5.82;3.38;;;11.20;99.90;;;;;;5058848;28;20102;-77
2021/05/04 07:37:11;;;;;;;2.50;2.30;;;11.20;99.90;;;;;;5057352;28;20049;-77
2021/05/04 07:39:38;;;;;;;5.38;3.40;;;11.20;99.90;;;;;;5057540;28;20501;-78
2021/05/04 07:42:05;;;;;;;3.60;3.10;;;11.20;99.90;;;;;;5058211;28;20132;-78
2021/05/04 07:44:32;;;;;;;4.03;3.05;;;11.20;99.90;;;;;;5059346;28;20053;-76
2021/05/04 07:46:58;;;;;;;3.88;2.80;;;11.30;99.90;;;;;;5056180;28;20049;-76
2021/05/04 07:49:31;;;;;;;6.75;3.28;;;11.30;99.90;;;;;;5045895;28;20053;-77
2021/05/04 07:51:57;;;;;;;5.00;3.50;;;11.40;99.90;;;;;;5046695;28;20055;-77
2021/05/04 07:54:25;;;;;;;9.93;3.72;;;11.40;99.90;;;;;;5048486;28;20053;-79
2021/05/04 07:56:51;;;;;;;3.90;3.20;;;11.50;99.90;;;;;;5044086;28;20140;-79
2021/05/04 07:59:18;;;;;;;14.65;3.88;;;11.60;99.90;;;;;;5050228;28;20087;-80
2021/05/04 08:01:44;;;;;;;6.35;3.30;;;11.70;99.90;;;;;;5060034;28;20127;-78
2021/05/04 08:04:11;;;;;;;3.00;2.55;;;11.90;99.90;;;;;;5059764;28;20091;-79
2021/05/04 08:06:48;;;;;;;6.50;3.60;;;11.90;99.90;;;;;;5054679;28;20048;-79
2021/05/04 08:09:14;;;;;;;8.50;3.80;;;12.00;99.90;;;;;;5049066;28;20108;-78
2021/05/04 08:11:42;;;;;;;3.08;2.60;;;12.00;99.90;;;;;;5050698;28;20045;-79
2021/05/04 08:14:08;;;;;;;24.63;5.78;;;12.00;99.90;;;;;;5047441;28;20446;-80
2021/05/04 08:16:35;;;;;;;12.05;3.53;;;12.00;99.90;;;;;;5049347;28;20597;-79
2021/05/04 08:19:03;;;;;;;4.13;2.55;;;12.10;99.90;;;;;;5051341;28;20060;-79
2021/05/04 08:21:33;;;;;;;3.75;3.00;;;12.10;99.90;;;;;;5060688;28;20133;-77
2021/05/04 08:24:00;;;;;;;3.40;2.58;;;12.10;99.90;;;;;;5055607;28;20052;-79
2021/05/04 08:26:27;;;;;;;3.30;2.78;;;12.10;99.90;;;;;;5050363;28;20532;-79
2021/05/04 08:28:55;;;;;;;3.45;2.80;;;12.00;99.90;;;;;;5048748;28;20826;-77
2021/05/04 08:31:22;;;;;;;3.80;2.78;;;11.90;99.90;;;;;;5048099;28;20049;-78
2021/05/04 08:33:48;;;;;;;7.22;3.13;;;12.00;99.90;;;;;;5050934;28;20055;-77
2021/05/04 08:36:14;;;;;;;6.22;3.17;;;11.90;99.90;;;;;;5056870;28;20088;-78
2021/05/04 08:38:41;;;;;;;4.00;2.83;;;12.00;99.90;;;;;;5045004;28;20128;-76
2021/05/04 08:41:08;;;;;;;6.25;3.72;;;11.90;99.90;;;;;;5053776;28;20109;-77
2021/05/04 08:43:35;;;;;;;8.02;3.33;;;12.00;99.90;;;;;;5046830;28;20113;-78
2021/05/04 08:46:03;;;;;;;3.92;3.53;;;12.00;99.90;;;;;;5051890;28;20086;-78
2021/05/04 08:48:30;;;;;;;4.50;3.78;;;12.10;99.90;;;;;;5041866;28;20057;-78
2021/05/04 08:50:59;;;;;;;4.53;3.22;;;12.10;99.90;;;;;;5048774;28;20141;-78
2021/05/04 08:53:26;;;;;;;5.07;4.00;;;12.10;99.90;;;;;;5038676;28;20045;-78
2021/05/04 08:55:52;;;;;;;4.38;3.65;;;12.10;99.90;;;;;;5034809;28;20077;-79
2021/05/04 08:58:21;;;;;;;3.92;3.25;;;12.30;99.90;;;;;;5033482;28;20406;-78
2021/05/04 09:00:48;;;;;;;10.88;4.22;;;12.60;99.90;;;;;;5033658;28;20049;-78
2021/05/04 09:03:17;;;;;;;10.82;6.03;;;12.80;99.90;;;;;;5035474;28;20053;-78
2021/05/04 09:05:50;;;;;;;5.85;3.97;;;13.30;99.90;;;;;;5035033;28;20053;-79
2021/05/04 09:08:34;;;;;;;12.77;4.70;;;13.80;99.90;;;;;;5034521;28;20136;-78
2021/05/04 09:11:27;;;;;;;4.15;2.63;;;14.00;99.90;;;;;;5053554;28;20041;-77
2021/05/04 09:13:59;;;;;;;4.43;2.63;;;13.90;99.90;;;;;;5051372;28;20046;-78
2021/05/04 09:16:31;;;;;;;3.80;2.70;;;13.60;99.90;;;;;;5044548;28;20077;-78
2021/05/04 09:22:00;;;;;;;5.97;2.90;;;13.10;99.90;;;;;;5009918;28;20052;-78
2021/05/04 09:24:30;;;;;;;9.45;2.85;;;13.00;99.90;;;;;;5002403;28;20129;-78
2021/05/04 09:27:06;;;;;;;3.75;2.65;;;12.90;99.90;;;;;;5029963;28;20068;-77
2021/05/04 09:29:35;;;;;;;4.70;2.45;;;12.90;99.90;;;;;;5051639;28;20059;-77
2021/05/04 09:32:29;;;;;;;6.00;3.03;;;13.00;99.90;;;;;;5052793;28;20121;-77
2021/05/04 09:34:59;;;;;;;4.43;3.30;;;13.10;99.90;;;;;;5046676;28;20072;-78
2021/05/04 09:37:34;;;;;;;3.85;2.20;;;13.30;99.90;;;;;;5046499;28;20056;-78
2021/05/04 09:40:25;;;;;;;3.75;2.50;;;13.40;99.90;;;;;;5042778;28;20045;-79
2021/05/04 09:43:10;;;;;;;2.42;1.73;;;13.40;99.90;;;;;;5044641;28;20132;-79
2021/05/04 09:45:39;;;;;;;4.32;2.20;;;13.40;99.90;;;;;;5043636;28;20061;-77
2021/05/04 09:48:30;;;;;;;4.60;2.20;;;13.30;99.90;;;;;;5042964;28;20132;-77
2021/05/04 09:51:03;;;;;;;2.80;2.08;;;13.20;99.90;;;;;;5042761;28;20475;-76
2021/05/04 09:53:39;;;;;;;4.70;2.65;;;13.20;99.90;;;;;;5041612;28;20041;-79
2021/05/04 09:56:06;;;;;;;2.20;1.80;;;13.30;99.90;;;;;;5041302;28;20144;-81
2021/05/04 09:58:37;;;;;;;4.75;2.67;;;13.60;99.90;;;;;;5045136;28;20124;-77
2021/05/04 10:01:07;;;;;;;3.92;2.35;;;13.70;99.90;;;;;;5044481;28;20076;-77
2021/05/04 10:03:34;;;;;;;5.72;2.38;;;13.80;99.90;;;;;;5054248;28;20060;-79
2021/05/04 10:06:04;;;;;;;4.30;2.50;;;13.90;99.90;;;;;;5053195;28;20128;-77
2021/05/04 10:08:32;;;;;;;4.63;2.40;;;13.80;99.90;;;;;;5045190;28;20128;-76
2021/05/04 10:11:00;;;;;;;13.48;3.00;;;13.90;99.90;;;;;;5045870;28;20137;-77
2021/05/04 10:13:29;;;;;;;19.23;3.45;;;13.90;99.90;;;;;;5040658;28;20060;-77
2021/05/04 10:15:56;;;;;;;27.40;5.95;;;13.60;99.90;;;;;;5045553;28;20080;-77
2021/05/04 10:18:23;;;;;;;40.67;5.85;;;13.30;99.90;;;;;;5040310;28;20481;-76
2021/05/04 10:20:53;;;;;;;25.45;4.38;;;13.20;99.90;;;;;;5042159;28;20146;-77
2021/05/04 10:23:21;;;;;;;19.80;3.90;;;13.10;99.90;;;;;;5039118;28;20414;-76
2021/05/04 10:25:51;;;;;;;30.55;4.57;;;13.10;99.90;;;;;;5032201;28;20092;-76
2021/05/04 10:28:18;;;;;;;23.73;3.92;;;13.10;99.90;;;;;;5041383;28;20041;-76
2021/05/04 10:30:45;;;;;;;30.27;4.30;;;13.20;99.90;;;;;;5043116;28;20397;-76
2021/05/04 10:33:27;;;;;;;37.33;5.03;;;13.40;99.90;;;;;;5047623;28;20399;-76
2021/05/04 10:35:54;;;;;;;27.95;4.85;;;13.90;99.90;;;;;;5051344;28;20100;-77
2021/05/04 10:38:21;;;;;;;42.15;4.38;;;14.40;99.90;;;;;;5049694;28;20086;-76
2021/05/04 10:40:58;;;;;;;33.58;4.82;;;14.50;99.90;;;;;;5044282;28;20563;-75
2021/05/04 10:43:38;;;;;;;24.95;4.13;;;14.50;99.90;;;;;;5047462;28;20055;-76
2021/05/04 10:46:09;;;;;;;19.63;5.57;;;14.40;99.90;;;;;;5048702;28;20103;-77
2021/05/04 10:48:41;;;;;;;22.23;4.10;;;14.10;99.90;;;;;;5041077;28;20056;-77
2021/05/04 10:51:10;;;;;;;14.55;3.90;;;13.60;99.90;;;;;;5040666;28;20420;-77
2021/05/04 10:54:05;;;;;;;24.25;4.00;;;13.30;99.90;;;;;;5047546;28;20072;-77
2021/05/04 10:56:36;;;;;;;15.52;3.50;;;13.40;99.90;;;;;;5014714;28;20405;-77
2021/05/04 10:59:03;;;;;;;17.00;4.43;;;13.80;99.90;;;;;;5035379;28;20129;-78
2021/05/04 11:01:31;;;;;;;14.32;3.55;;;14.20;99.90;;;;;;5040157;28;20045;-78
2021/05/04 11:03:59;;;;;;;9.93;3.42;;;14.60;99.90;;;;;;5052865;28;20048;-78
2021/05/04 11:06:46;;;;;;;12.10;3.53;;;14.80;99.90;;;;;;5051772;28;20746;-78
2021/05/04 11:09:14;;;;;;;29.23;4.82;;;15.00;99.90;;;;;;5050636;28;20127;-75
2021/05/04 11:11:45;;;;;;;33.75;4.75;;;14.90;99.90;;;;;;5051599;28;20132;-79
2021/05/04 11:14:26;;;;;;;34.78;5.60;;;14.70;99.90;;;;;;5052057;28;20598;-76
2021/05/04 11:17:10;;;;;;;27.27;4.60;;;14.50;99.90;;;;;;5051293;28;20060;-76
2021/05/04 11:19:40;;;;;;;36.42;5.55;;;14.20;99.90;;;;;;5050364;28;20052;-77
2021/05/04 11:22:26;;;;;;;60.88;8.35;;;14.00;99.90;;;;;;5051248;28;20488;-78
2021/05/04 11:24:57;;;;;;;98.53;8.65;;;13.80;99.90;;;;;;5038612;28;20065;-78
2021/05/04 11:27:33;;;;;;;14.48;3.80;;;13.60;99.90;;;;;;5032418;28;20183;-79
2021/05/04 11:30:04;;;;;;;14.05;3.55;;;13.70;99.90;;;;;;5043655;28;20529;-77
2021/05/04 11:32:43;;;;;;;12.38;3.42;;;14.00;99.90;;;;;;5032373;28;20049;-78
2021/05/04 11:35:11;;;;;;;9.98;3.42;;;14.20;99.90;;;;;;5032016;28;20464;-77
2021/05/04 11:37:40;;;;;;;13.60;4.43;;;14.20;99.90;;;;;;5031944;28;20416;-77
2021/05/04 11:40:31;;;;;;;16.02;3.90;;;14.30;99.90;;;;;;5032599;28;20107;-78
2021/05/04 11:43:01;;;;;;;14.07;4.00;;;14.60;99.90;;;;;;5019333;28;20101;-77
2021/05/04 11:45:29;;;;;;;20.38;4.22;;;14.60;99.90;;;;;;5034120;28;20053;-79
2021/05/04 11:47:57;;;;;;;16.35;4.13;;;14.70;99.90;;;;;;5050725;28;20071;-79
2021/05/04 11:50:24;;;;;;;15.93;4.05;;;14.80;99.90;;;;;;5054405;28;20064;-77
2021/05/04 11:52:58;;;;;;;33.55;4.63;;;14.70;99.90;;;;;;5035411;28;20191;-77
2021/05/04 11:55:26;;;;;;;11.65;3.72;;;14.50;99.90;;;;;;5031995;28;20485;-74
2021/05/04 11:57:57;;;;;;;14.63;3.08;;;14.50;99.90;;;;;;5041937;28;20140;-77
2021/05/04 12:00:25;;;;;;;16.20;5.38;;;14.50;99.90;;;;;;5041110;28;20468;-77
2021/05/04 12:02:52;;;;;;;17.35;4.00;;;14.70;99.90;;;;;;5045966;28;20084;-78
2021/05/04 12:05:25;;;;;;;11.95;3.95;;;14.90;99.90;;;;;;5048028;28;20126;-77
2021/05/04 12:07:52;;;;;;;18.27;4.53;;;14.90;99.90;;;;;;5039992;28;20120;-78
2021/05/04 12:10:32;;;;;;;15.90;4.45;;;14.80;99.90;;;;;;5037619;28;20056;-79
2021/05/04 12:13:02;;;;;;;8.82;3.05;;;14.80;99.90;;;;;;5042543;28;20461;-78
2021/05/04 12:15:29;;;;;;;11.90;3.53;;;14.70;99.90;;;;;;5037760;28;20045;-78
2021/05/04 12:18:08;;;;;;;16.45;3.63;;;14.60;99.90;;;;;;5053619;28;20186;-79
2021/05/04 12:20:37;;;;;;;7.60;3.08;;;14.70;99.90;;;;;;5055452;28;20045;-78
2021/05/04 12:23:06;;;;;;;16.27;3.53;;;15.00;99.90;;;;;;5044472;28;20133;-77
2021/05/04 12:25:53;;;;;;;13.68;3.80;;;15.10;99.90;;;;;;5038995;28;20080;-76
2021/05/04 12:28:23;;;;;;;25.60;4.20;;;14.90;99.90;;;;;;5055485;28;20076;-77
2021/05/04 12:30:52;;;;;;;22.48;4.55;;;15.00;99.90;;;;;;5055593;28;20053;-79
2021/05/04 12:33:25;;;;;;;32.28;5.05;;;15.10;99.90;;;;;;5054746;28;20056;-77
2021/05/04 12:39:27;;;;;;;;;;;;;;;;;;;;;
2021/05/04 12:43:02;;;;;;;47.35;5.28;;;15.10;99.90;;;;;;4981681;28;20076;-78
2021/05/04 12:48:29;;;;;;;27.25;4.72;;;15.00;99.90;;;;;;5076911;22;20053;-79
2021/05/04 12:51:03;;;;;;;28.35;4.53;;;15.10;99.90;;;;;;5058369;28;20076;-79
2021/05/04 12:53:35;;;;;;;43.92;5.25;;;15.20;99.90;;;;;;5049258;28;20049;-80
2021/05/04 12:56:11;;;;;;;31.23;4.22;;;15.30;99.90;;;;;;5036331;28;20113;-80
2021/05/04 12:58:54;;;;;;;53.13;6.53;;;15.50;99.90;;;;;;5056707;28;20049;-79
2021/05/04 13:01:31;;;;;;;25.90;4.90;;;15.40;99.90;;;;;;5057535;28;20132;-79
2021/05/04 13:03:59;;;;;;;27.83;4.55;;;15.30;99.90;;;;;;5069055;28;20055;-79